Time;durP1;ratioP1;P1;durP2;ratioP2;P2;SDS_P1;SDS_P2;PMS_P1;PMS_P2;Temp;Humidity;BMP_temperature;BMP_pressure;BME280_temperature;BME280_humidity;BME280_pressure;Samples;Min_cycle;Max_cycle;Signal;HPM_P1;HPM_P2
2024/03/02 00:02:07;;;;;;;70.80;11.43;;;6.30;99.90;;;;;;5046866;28;20122;-69
2024/03/02 00:04:32;;;;;;;44.15;9.27;;;6.20;99.90;;;;;;5047011;28;20033;-69
2024/03/02 00:06:58;;;;;;;23.25;5.28;;;6.10;99.90;;;;;;5038480;28;20108;-71
2024/03/02 00:09:24;;;;;;;5.82;4.57;;;6.00;99.90;;;;;;5040777;28;20173;-70
2024/03/02 00:11:50;;;;;;;6.28;4.60;;;6.00;99.90;;;;;;5042320;28;20040;-69
2024/03/02 00:14:16;;;;;;;5.47;4.53;;;6.00;99.90;;;;;;5030365;28;20109;-70
2024/03/02 00:16:43;;;;;;;6.10;4.72;;;5.90;99.90;;;;;;5041649;28;20112;-69
2024/03/02 00:19:09;;;;;;;5.97;4.57;;;5.90;99.90;;;;;;5045812;28;20040;-70
2024/03/02 00:21:35;;;;;;;5.03;4.20;;;5.80;99.90;;;;;;5041798;28;20115;-70
2024/03/02 00:24:29;;;;;;;5.20;4.38;;;5.80;99.90;;;;;;5040153;28;20395;-70
2024/03/02 00:26:54;;;;;;;5.50;4.10;;;5.80;99.90;;;;;;5043532;28;20334;-70
2024/03/02 00:29:21;;;;;;;4.38;3.97;;;5.80;99.90;;;;;;5045278;28;20390;-69
2024/03/02 00:31:48;;;;;;;5.70;4.70;;;5.90;99.90;;;;;;5040080;28;20028;-70
2024/03/02 00:34:16;;;;;;;4.85;4.32;;;5.90;99.90;;;;;;5041078;28;20028;-71
2024/03/02 00:36:42;;;;;;;5.47;4.57;;;5.90;99.90;;;;;;5038062;28;20044;-70
2024/03/02 00:39:08;;;;;;;5.18;4.55;;;5.90;99.90;;;;;;5041623;28;20756;-69
2024/03/02 00:41:34;;;;;;;6.45;4.60;;;6.00;99.90;;;;;;5041371;28;20491;-70
2024/03/02 00:44:12;;;;;;;6.15;5.00;;;5.90;99.90;;;;;;5039945;28;20033;-71
2024/03/02 00:46:40;;;;;;;8.02;5.20;;;5.90;99.90;;;;;;5043457;28;20627;-68
2024/03/02 00:49:20;;;;;;;6.40;4.73;;;5.90;99.90;;;;;;5040608;28;20032;-70
2024/03/02 00:51:51;;;;;;;8.73;5.68;;;5.90;99.90;;;;;;5045917;28;20025;-68
2024/03/02 00:54:25;;;;;;;6.65;5.72;;;5.90;99.90;;;;;;5043943;28;20017;-69
2024/03/02 00:56:55;;;;;;;8.10;5.68;;;5.90;99.90;;;;;;5044611;28;20036;-70
2024/03/02 00:59:22;;;;;;;11.27;6.22;;;5.90;99.90;;;;;;5044078;28;20491;-71
2024/03/02 01:01:49;;;;;;;8.90;5.95;;;5.90;99.90;;;;;;5043872;28;20056;-69
2024/03/02 01:04:15;;;;;;;18.77;6.60;;;5.90;99.90;;;;;;5043699;28;20021;-69
2024/03/02 01:06:42;;;;;;;6.03;5.18;;;5.90;99.90;;;;;;5043097;28;20223;-71
2024/03/02 01:09:07;;;;;;;5.68;4.47;;;5.90;99.90;;;;;;5041190;28;20025;-70
2024/03/02 01:11:33;;;;;;;7.70;5.63;;;5.80;99.90;;;;;;5040841;28;20040;-68
2024/03/02 01:13:59;;;;;;;7.05;5.20;;;5.80;99.90;;;;;;5043944;28;20398;-69
2024/03/02 01:16:25;;;;;;;9.68;6.10;;;5.80;99.90;;;;;;5039015;28;20036;-69
2024/03/02 01:18:50;;;;;;;8.30;5.28;;;5.70;99.90;;;;;;5042860;28;20065;-69
2024/03/02 01:21:16;;;;;;;8.90;5.72;;;5.70;99.90;;;;;;5046114;28;20533;-69
2024/03/02 01:23:42;;;;;;;7.03;5.32;;;5.70;99.90;;;;;;5044896;28;20048;-73
2024/03/02 01:26:07;;;;;;;7.75;5.75;;;5.70;99.90;;;;;;5043977;28;20482;-72
2024/03/02 01:28:33;;;;;;;8.00;5.57;;;5.70;99.90;;;;;;5042875;28;20167;-69
2024/03/02 01:30:59;;;;;;;6.50;4.95;;;5.70;99.90;;;;;;5041057;28;20029;-69
2024/03/02 01:33:24;;;;;;;9.27;5.68;;;5.70;99.90;;;;;;5044746;28;20057;-70
2024/03/02 01:35:50;;;;;;;6.97;5.05;;;5.70;99.90;;;;;;5041745;28;20060;-70
2024/03/02 01:38:16;;;;;;;8.50;6.15;;;5.70;99.90;;;;;;5038936;28;20028;-69
2024/03/02 01:40:44;;;;;;;7.25;5.63;;;5.70;99.90;;;;;;5042577;28;20029;-71
2024/03/02 01:43:10;;;;;;;8.50;5.70;;;5.80;99.90;;;;;;5036328;28;20057;-69
2024/03/02 01:45:37;;;;;;;10.32;5.43;;;5.70;99.90;;;;;;5044845;28;20051;-70
2024/03/02 01:48:03;;;;;;;7.03;4.72;;;5.70;99.90;;;;;;5040384;28;20033;-70
2024/03/02 01:50:31;;;;;;;6.70;5.47;;;5.70;99.90;;;;;;5045489;28;20044;-69
2024/03/02 01:52:58;;;;;;;5.35;4.78;;;5.70;99.90;;;;;;5045199;28;20029;-70
2024/03/02 01:55:24;;;;;;;5.68;4.80;;;5.70;99.90;;;;;;5039644;28;20875;-69
2024/03/02 01:57:52;;;;;;;7.72;5.35;;;5.70;99.90;;;;;;5036427;28;20120;-70
2024/03/02 02:00:21;;;;;;;5.22;4.15;;;5.70;99.90;;;;;;5044475;28;20032;-69
2024/03/02 02:02:48;;;;;;;4.90;3.83;;;5.50;99.90;;;;;;5039855;28;20070;-70
2024/03/02 02:05:14;;;;;;;5.00;4.55;;;5.50;99.90;;;;;;5041752;28;20036;-70
2024/03/02 02:07:42;;;;;;;4.45;4.05;;;5.50;99.90;;;;;;5040389;28;20096;-69
2024/03/02 02:10:08;;;;;;;6.05;5.15;;;5.50;99.90;;;;;;5043590;28;20021;-69
2024/03/02 02:12:34;;;;;;;5.03;4.45;;;5.60;99.90;;;;;;5038753;28;20044;-70
2024/03/02 02:15:00;;;;;;;10.43;5.30;;;5.60;99.90;;;;;;5039978;28;20098;-68
2024/03/02 02:17:26;;;;;;;6.28;4.85;;;5.60;99.90;;;;;;5039492;28;20114;-70
2024/03/02 02:19:52;;;;;;;19.98;5.90;;;5.50;99.90;;;;;;5040111;28;20112;-70
2024/03/02 02:22:17;;;;;;;7.43;5.47;;;5.50;99.90;;;;;;5044703;28;20048;-69
2024/03/02 02:24:43;;;;;;;6.47;4.90;;;5.50;99.90;;;;;;5042221;28;20040;-71
2024/03/02 02:27:10;;;;;;;7.22;5.45;;;5.50;99.90;;;;;;5038365;28;20458;-69
2024/03/02 02:29:35;;;;;;;8.75;5.68;;;5.40;99.90;;;;;;5044999;28;20036;-69
2024/03/02 02:32:01;;;;;;;7.85;5.35;;;5.30;99.90;;;;;;5043256;28;20713;-69
2024/03/02 02:34:27;;;;;;;8.40;5.80;;;5.30;99.90;;;;;;5047143;28;20083;-69
2024/03/02 02:36:53;;;;;;;7.88;5.88;;;5.30;99.90;;;;;;5047289;28;20025;-69
2024/03/02 02:39:21;;;;;;;9.15;6.70;;;5.40;99.90;;;;;;5046311;28;20029;-69
2024/03/02 02:41:47;;;;;;;8.32;6.25;;;5.40;99.90;;;;;;5045457;28;20044;-70
2024/03/02 02:44:12;;;;;;;7.95;5.78;;;5.30;99.90;;;;;;5043892;28;20425;-70
2024/03/02 02:46:38;;;;;;;7.25;5.55;;;5.30;99.90;;;;;;5043934;28;20398;-69
2024/03/02 02:49:05;;;;;;;7.68;6.15;;;5.40;99.90;;;;;;5045919;28;20482;-69
2024/03/02 02:51:30;;;;;;;5.55;4.90;;;5.50;99.90;;;;;;5046885;28;20350;-68
2024/03/02 02:53:56;;;;;;;5.88;5.10;;;5.50;99.90;;;;;;5039879;28;20382;-69
2024/03/02 02:56:22;;;;;;;5.72;4.88;;;5.50;99.90;;;;;;5046964;28;20032;-69
2024/03/02 02:58:48;;;;;;;4.97;4.43;;;5.50;99.90;;;;;;5047335;28;20037;-68
2024/03/02 03:01:17;;;;;;;6.30;5.05;;;5.50;99.90;;;;;;5041414;28;20045;-70
2024/03/02 03:03:46;;;;;;;6.88;5.05;;;5.40;99.90;;;;;;5035942;28;20446;-70
2024/03/02 03:06:12;;;;;;;6.22;4.95;;;5.40;99.90;;;;;;5044565;28;20483;-69
2024/03/02 03:08:38;;;;;;;6.97;4.55;;;5.30;99.90;;;;;;5038130;28;20107;-71
2024/03/02 03:11:06;;;;;;;6.82;5.53;;;5.30;99.90;;;;;;5047436;28;20510;-69
2024/03/02 03:13:33;;;;;;;8.85;5.95;;;5.40;99.90;;;;;;5045148;28;20029;-71
2024/03/02 03:15:59;;;;;;;8.35;5.80;;;5.30;99.90;;;;;;5043597;28;20040;-71
2024/03/02 03:18:25;;;;;;;6.55;5.60;;;5.40;99.90;;;;;;5047193;28;20025;-70
2024/03/02 03:20:50;;;;;;;10.13;5.93;;;5.40;99.90;;;;;;5046197;28;20033;-70
2024/03/02 03:23:17;;;;;;;7.50;5.72;;;5.30;99.90;;;;;;5044961;28;20548;-69
2024/03/02 03:25:43;;;;;;;7.35;6.13;;;5.40;99.90;;;;;;5039758;28;20029;-71
2024/03/02 03:28:12;;;;;;;7.38;5.88;;;5.30;99.90;;;;;;5044931;28;20079;-70
2024/03/02 03:30:38;;;;;;;8.85;6.50;;;5.40;99.90;;;;;;5046406;28;20124;-69
2024/03/02 03:33:07;;;;;;;10.40;6.10;;;5.40;99.90;;;;;;5046113;28;20029;-69
2024/03/02 03:35:33;;;;;;;7.43;5.60;;;5.30;99.90;;;;;;5045459;28;20246;-69
2024/03/02 03:37:59;;;;;;;8.88;5.90;;;5.30;99.90;;;;;;5040278;28;20025;-69
2024/03/02 03:40:24;;;;;;;6.88;5.03;;;5.40;99.90;;;;;;5045211;28;20051;-69
2024/03/02 03:42:50;;;;;;;7.10;4.38;;;5.20;99.90;;;;;;5045917;28;20462;-70
2024/03/02 03:45:16;;;;;;;7.78;5.28;;;5.00;99.90;;;;;;5045837;28;20060;-69
2024/03/02 03:47:42;;;;;;;6.43;4.78;;;5.00;99.90;;;;;;5043767;28;20025;-70
2024/03/02 03:50:08;;;;;;;5.30;4.68;;;4.90;99.90;;;;;;5041452;28;20052;-71
2024/03/02 03:52:33;;;;;;;5.35;4.32;;;4.90;99.90;;;;;;5043407;28;20382;-68
2024/03/02 03:55:00;;;;;;;8.95;6.50;;;5.00;99.90;;;;;;5042983;28;20025;-69
2024/03/02 03:57:26;;;;;;;14.77;8.82;;;5.00;99.90;;;;;;5037734;28;20588;-69
2024/03/02 03:59:52;;;;;;;15.65;8.40;;;5.00;99.90;;;;;;5045396;28;20070;-69
2024/03/02 04:02:18;;;;;;;15.25;7.55;;;5.00;99.90;;;;;;5046030;28;20269;-70
2024/03/02 04:04:44;;;;;;;14.35;7.90;;;5.10;99.90;;;;;;5037633;28;20029;-69
2024/03/02 04:07:09;;;;;;;18.63;8.95;;;5.10;99.90;;;;;;5046481;28;20032;-68
2024/03/02 04:09:35;;;;;;;16.20;8.23;;;5.20;99.90;;;;;;5046385;28;20056;-69
2024/03/02 04:12:00;;;;;;;15.65;9.63;;;5.20;99.90;;;;;;5042328;28;20037;-68
2024/03/02 04:14:26;;;;;;;16.20;7.95;;;5.20;99.90;;;;;;5039467;28;20060;-68
2024/03/02 04:16:52;;;;;;;14.95;7.47;;;5.20;99.90;;;;;;5037650;28;20422;-70
2024/03/02 04:19:17;;;;;;;11.85;7.10;;;5.30;99.90;;;;;;5043590;28;20029;-68
2024/03/02 04:21:43;;;;;;;8.38;6.30;;;5.30;99.90;;;;;;5043099;28;20038;-70
2024/03/02 04:24:08;;;;;;;10.90;6.38;;;5.40;99.90;;;;;;5041967;28;20162;-70
2024/03/02 04:26:34;;;;;;;8.82;6.20;;;5.30;99.90;;;;;;5039071;28;20037;-69
2024/03/02 04:28:59;;;;;;;8.88;5.90;;;5.30;99.90;;;;;;5040221;28;20082;-71
2024/03/02 04:31:25;;;;;;;7.85;5.55;;;5.30;99.90;;;;;;5045433;28;20573;-70
2024/03/02 04:33:51;;;;;;;7.57;5.78;;;5.30;99.90;;;;;;5044617;28;20036;-70
2024/03/02 04:36:16;;;;;;;11.20;5.63;;;5.30;99.90;;;;;;5043310;28;20028;-70
2024/03/02 04:38:42;;;;;;;10.18;5.88;;;5.30;99.90;;;;;;5042494;28;20094;-70
2024/03/02 04:41:07;;;;;;;7.93;6.07;;;5.30;99.90;;;;;;5042944;28;20095;-69
2024/03/02 04:43:34;;;;;;;10.05;6.30;;;5.30;99.90;;;;;;5042244;28;20092;-69
2024/03/02 04:46:00;;;;;;;8.07;5.25;;;5.30;99.90;;;;;;5043890;28;20099;-69
2024/03/02 04:48:26;;;;;;;6.85;5.00;;;5.20;99.90;;;;;;5042194;28;20021;-69
2024/03/02 04:50:52;;;;;;;7.10;5.50;;;5.10;99.90;;;;;;5042777;28;20048;-70
2024/03/02 04:53:18;;;;;;;13.52;4.97;;;5.00;99.90;;;;;;5042568;28;20090;-70
2024/03/02 04:58:09;;;;;;;6.85;4.78;;;5.00;99.90;;;;;;5044010;28;20378;-70
2024/03/02 05:00:35;;;;;;;7.45;5.18;;;5.00;99.90;;;;;;5040507;28;20036;-69
2024/03/02 05:03:01;;;;;;;7.32;5.32;;;4.90;99.90;;;;;;5041465;28;20439;-70
2024/03/02 05:05:27;;;;;;;7.88;4.80;;;5.00;99.90;;;;;;5045167;28;20572;-70
2024/03/02 05:07:53;;;;;;;7.72;5.53;;;5.00;99.90;;;;;;5045167;28;20100;-69
2024/03/02 05:10:18;;;;;;;6.97;5.22;;;5.00;99.90;;;;;;5042792;28;20467;-71
2024/03/02 05:15:16;;;;;;;6.45;5.20;;;5.00;99.90;;;;;;5047478;28;20035;-70
2024/03/02 05:17:44;;;;;;;10.05;7.10;;;4.90;99.90;;;;;;5041201;28;20029;-72
2024/03/02 05:20:11;;;;;;;9.10;6.43;;;4.90;99.90;;;;;;5044652;28;20036;-69
2024/03/02 05:22:37;;;;;;;10.07;6.50;;;4.90;99.90;;;;;;5044125;28;20514;-69
2024/03/02 05:25:04;;;;;;;9.68;6.43;;;4.90;99.90;;;;;;5047176;28;20021;-69
2024/03/02 05:27:30;;;;;;;9.40;5.93;;;4.80;99.90;;;;;;5042536;28;20053;-71
2024/03/02 05:29:56;;;;;;;11.60;7.82;;;4.80;99.90;;;;;;5047740;28;20072;-71
2024/03/02 05:32:21;;;;;;;57.53;10.02;;;4.70;99.90;;;;;;5048944;28;20124;-71
2024/03/02 05:34:47;;;;;;;8.88;5.95;;;4.60;99.90;;;;;;5047669;28;20489;-72
2024/03/02 05:37:13;;;;;;;8.32;6.35;;;4.60;99.90;;;;;;5045849;28;20047;-69
2024/03/02 05:39:38;;;;;;;9.88;6.07;;;4.60;99.90;;;;;;5046475;28;20477;-69
2024/03/02 05:42:04;;;;;;;34.45;13.63;;;4.60;99.90;;;;;;5040828;28;20033;-69
2024/03/02 05:44:30;;;;;;;28.20;12.68;;;4.60;99.90;;;;;;5043667;28;20033;-70
2024/03/02 05:46:56;;;;;;;21.45;11.82;;;4.60;99.90;;;;;;5052513;28;20284;-73
2024/03/02 05:49:22;;;;;;;10.57;7.07;;;4.50;99.90;;;;;;5053732;28;20021;-74
2024/03/02 05:51:47;;;;;;;11.60;7.30;;;4.60;99.90;;;;;;5050277;28;20504;-72
2024/03/02 05:54:13;;;;;;;9.32;6.40;;;4.50;99.90;;;;;;5051679;28;20029;-71
2024/03/02 05:56:39;;;;;;;9.02;5.72;;;4.60;99.90;;;;;;5055806;28;20029;-73
2024/03/02 05:59:15;;;;;;;11.68;6.93;;;4.50;99.90;;;;;;5053797;28;20029;-71
2024/03/02 06:01:42;;;;;;;5.03;4.03;;;4.50;99.90;;;;;;5054749;28;20406;-72
2024/03/02 06:04:12;;;;;;;4.82;3.92;;;4.40;99.90;;;;;;5055415;28;20014;-71
2024/03/02 06:06:38;;;;;;;12.23;4.30;;;4.20;99.90;;;;;;5056091;28;20589;-72
2024/03/02 06:09:07;;;;;;;5.75;4.05;;;4.10;99.90;;;;;;5056341;28;20033;-72
2024/03/02 06:11:37;;;;;;;16.60;5.25;;;4.10;99.90;;;;;;5058217;28;20098;-73
2024/03/02 06:14:06;;;;;;;3.40;3.10;;;4.00;99.90;;;;;;5055455;28;20033;-73
2024/03/02 06:16:33;;;;;;;5.22;4.28;;;3.90;99.90;;;;;;5054781;28;20033;-68
2024/03/02 06:18:58;;;;;;;21.20;5.03;;;4.00;99.90;;;;;;5046585;28;20111;-71
2024/03/02 06:21:25;;;;;;;3.83;3.40;;;4.00;99.90;;;;;;5047217;28;20171;-68
2024/03/02 06:23:51;;;;;;;4.65;4.15;;;4.00;99.90;;;;;;5049502;28;20060;-70
2024/03/02 06:26:18;;;;;;;7.47;4.10;;;4.00;99.90;;;;;;5046951;28;20132;-69
2024/03/02 06:28:56;;;;;;;24.27;5.10;;;4.00;99.90;;;;;;5045068;28;20521;-70
2024/03/02 06:31:22;;;;;;;6.60;4.25;;;4.00;99.90;;;;;;5043965;28;21605;-69
2024/03/02 06:33:48;;;;;;;6.20;4.15;;;4.00;99.90;;;;;;5047404;28;20034;-70
2024/03/02 06:36:15;;;;;;;5.38;4.60;;;4.00;99.90;;;;;;5046887;28;20215;-71
2024/03/02 06:38:41;;;;;;;8.23;4.75;;;4.00;99.90;;;;;;5049101;28;20046;-70
2024/03/02 06:41:06;;;;;;;6.40;4.47;;;4.10;99.90;;;;;;5044932;28;20060;-70
2024/03/02 06:43:32;;;;;;;15.52;4.50;;;4.10;99.90;;;;;;5043791;28;20029;-70
2024/03/02 06:45:58;;;;;;;5.93;3.95;;;4.00;99.90;;;;;;5043720;28;20511;-70
2024/03/02 06:48:24;;;;;;;6.65;4.40;;;3.90;99.90;;;;;;5040826;28;20431;-69
2024/03/02 06:50:51;;;;;;;4.75;4.28;;;3.90;99.90;;;;;;5047270;28;20033;-71
2024/03/02 06:53:17;;;;;;;5.13;4.10;;;4.00;99.90;;;;;;5042377;28;20014;-70
2024/03/02 06:55:46;;;;;;;4.90;4.40;;;4.00;99.90;;;;;;5041613;28;20075;-71
2024/03/02 06:58:14;;;;;;;6.35;4.53;;;4.10;99.90;;;;;;5045838;28;20020;-69
2024/03/02 07:00:41;;;;;;;4.53;3.92;;;4.20;99.90;;;;;;5047541;28;20171;-70
2024/03/02 07:03:06;;;;;;;6.05;4.05;;;4.20;99.90;;;;;;5045839;28;20294;-71
2024/03/02 07:05:32;;;;;;;6.40;4.40;;;4.30;99.90;;;;;;5048756;28;20029;-69
2024/03/02 07:07:58;;;;;;;10.55;4.20;;;4.30;99.90;;;;;;5045997;28;20283;-71
2024/03/02 07:10:24;;;;;;;6.00;4.20;;;4.40;99.90;;;;;;5048492;28;20029;-69
2024/03/02 07:12:49;;;;;;;4.28;3.88;;;4.30;99.90;;;;;;5044837;28;20402;-69
2024/03/02 07:17:52;;;;;;;5.07;4.40;;;4.40;99.90;;;;;;5046341;28;20029;-68
2024/03/02 07:20:27;;;;;;;5.97;4.68;;;4.40;99.90;;;;;;5047652;28;20052;-70
2024/03/02 07:22:53;;;;;;;6.03;4.68;;;4.50;99.90;;;;;;5041507;28;20036;-70
2024/03/02 07:25:18;;;;;;;6.90;5.43;;;4.50;99.90;;;;;;5045546;28;20029;-70
2024/03/02 07:27:44;;;;;;;6.78;4.88;;;4.60;99.90;;;;;;5048592;28;20025;-70
2024/03/02 07:30:13;;;;;;;6.30;5.50;;;4.60;99.90;;;;;;5047818;28;20033;-69
2024/03/02 07:32:39;;;;;;;7.72;5.05;;;4.70;99.90;;;;;;5045912;28;20041;-71
2024/03/02 07:35:05;;;;;;;8.05;6.03;;;4.70;99.90;;;;;;5045196;28;20537;-69
2024/03/02 07:37:31;;;;;;;6.22;5.40;;;4.80;99.90;;;;;;5041172;28;20029;-69
2024/03/02 07:39:56;;;;;;;7.40;6.43;;;4.90;99.90;;;;;;5049072;28;20025;-70
2024/03/02 07:42:22;;;;;;;7.32;5.78;;;4.90;99.90;;;;;;5042369;28;20417;-69
2024/03/02 07:44:48;;;;;;;9.95;5.90;;;5.10;99.90;;;;;;5046360;28;20048;-69
2024/03/02 07:47:14;;;;;;;7.53;5.97;;;5.10;99.90;;;;;;5046265;28;20022;-70
2024/03/02 07:49:40;;;;;;;7.53;5.68;;;5.20;99.90;;;;;;5042817;28;20446;-71
2024/03/02 07:52:05;;;;;;;9.93;7.53;;;5.30;99.90;;;;;;5041044;28;20029;-68
2024/03/02 07:54:31;;;;;;;7.72;5.95;;;5.30;99.90;;;;;;5049450;28;20033;-70
2024/03/02 07:56:57;;;;;;;8.55;5.80;;;5.40;99.90;;;;;;5052464;28;20033;-69
2024/03/02 07:59:23;;;;;;;8.55;6.55;;;5.50;99.90;;;;;;5046168;28;20025;-70
2024/03/02 08:01:50;;;;;;;7.28;5.60;;;5.60;99.90;;;;;;5041523;28;20415;-70
2024/03/02 08:04:16;;;;;;;4.75;4.25;;;5.60;99.90;;;;;;5041898;28;20036;-70
2024/03/02 08:06:41;;;;;;;7.60;6.05;;;5.70;99.90;;;;;;5047760;28;20021;-72
2024/03/02 08:09:10;;;;;;;10.52;6.95;;;5.70;99.90;;;;;;5044653;28;20059;-70
2024/03/02 08:11:36;;;;;;;11.75;7.20;;;5.80;99.90;;;;;;5040659;28;20029;-70
2024/03/02 08:14:01;;;;;;;8.35;6.55;;;5.90;99.90;;;;;;5041634;28;20498;-70
2024/03/02 08:16:27;;;;;;;12.95;7.40;;;6.00;99.90;;;;;;5043997;28;20029;-70
2024/03/02 08:18:53;;;;;;;8.55;5.80;;;6.20;99.90;;;;;;5044914;28;20104;-71
2024/03/02 08:21:19;;;;;;;6.03;4.25;;;6.30;99.90;;;;;;5045017;28;20033;-71
2024/03/02 08:23:45;;;;;;;8.38;6.45;;;6.30;99.90;;;;;;5043358;28;20292;-71
2024/03/02 08:26:11;;;;;;;9.63;7.10;;;6.40;99.90;;;;;;5042184;28;20372;-70
2024/03/02 08:28:37;;;;;;;8.40;6.85;;;6.50;99.90;;;;;;5042946;28;20451;-69
2024/03/02 08:31:06;;;;;;;9.18;5.43;;;6.60;99.90;;;;;;5046386;28;20116;-70
2024/03/02 08:33:32;;;;;;;9.77;7.07;;;6.70;99.90;;;;;;5045586;28;20106;-70
2024/03/02 08:35:58;;;;;;;10.27;6.88;;;6.70;99.90;;;;;;5043048;28;20041;-69
2024/03/02 08:38:24;;;;;;;8.52;6.32;;;6.80;99.90;;;;;;5040453;28;20474;-70
2024/03/02 08:40:50;;;;;;;9.32;6.82;;;7.00;99.90;;;;;;5042743;28;20150;-70
2024/03/02 08:43:16;;;;;;;8.77;7.00;;;7.10;99.90;;;;;;5044854;28;20079;-71
2024/03/02 08:45:42;;;;;;;8.93;6.53;;;7.10;99.90;;;;;;5044547;28;20497;-72
2024/03/02 08:48:08;;;;;;;9.00;6.88;;;7.20;99.90;;;;;;5043008;28;20040;-70
2024/03/02 08:50:34;;;;;;;10.43;7.15;;;7.30;99.90;;;;;;5042948;28;20047;-71
2024/03/02 08:53:00;;;;;;;11.60;7.22;;;7.40;99.90;;;;;;5043836;28;20425;-70
2024/03/02 08:55:26;;;;;;;9.68;6.70;;;7.60;99.90;;;;;;5040617;28;20025;-70
2024/03/02 08:57:55;;;;;;;8.65;6.65;;;7.70;99.90;;;;;;5042507;28;20052;-70
2024/03/02 09:00:22;;;;;;;8.10;6.30;;;7.90;99.90;;;;;;5041398;28;20379;-71
2024/03/02 09:02:47;;;;;;;9.63;6.97;;;8.00;99.90;;;;;;5042270;28;20064;-71
2024/03/02 09:05:13;;;;;;;11.80;6.85;;;8.10;99.90;;;;;;5039722;28;20075;-71
2024/03/02 09:07:39;;;;;;;9.98;6.68;;;8.20;99.90;;;;;;5042058;28;20267;-70
2024/03/02 09:10:08;;;;;;;8.30;6.10;;;8.30;99.90;;;;;;5037763;28;20397;-70
2024/03/02 09:12:34;;;;;;;8.40;6.13;;;8.40;99.90;;;;;;5044858;28;20406;-71
2024/03/02 09:15:04;;;;;;;6.35;4.90;;;8.60;99.90;;;;;;5043424;28;20036;-70
2024/03/02 09:17:30;;;;;;;6.97;5.43;;;8.60;99.90;;;;;;5048162;28;20446;-71
2024/03/02 09:19:56;;;;;;;5.53;3.53;;;8.70;99.90;;;;;;5043737;28;20166;-71
2024/03/02 09:22:21;;;;;;;4.38;3.72;;;8.90;99.90;;;;;;5045855;28;20033;-70
2024/03/02 09:24:47;;;;;;;4.93;4.00;;;9.00;99.90;;;;;;5034003;28;20025;-70
2024/03/02 09:27:13;;;;;;;4.13;3.45;;;9.10;99.90;;;;;;5044472;28;20021;-71
2024/03/02 09:29:39;;;;;;;4.18;3.42;;;9.20;99.90;;;;;;5042821;28;20111;-70
2024/03/02 09:32:05;;;;;;;2.83;2.53;;;9.40;99.90;;;;;;5043768;28;20115;-71
2024/03/02 09:34:31;;;;;;;5.40;3.53;;;9.40;99.90;;;;;;5037770;28;20245;-70
2024/03/02 09:36:57;;;;;;;5.25;3.45;;;9.50;99.90;;;;;;5040845;28;20107;-71
2024/03/02 09:39:25;;;;;;;4.45;3.30;;;9.70;99.90;;;;;;5045568;28;20017;-71
2024/03/02 09:41:50;;;;;;;3.15;2.85;;;9.80;99.90;;;;;;5043119;28;20588;-71
2024/03/02 09:44:20;;;;;;;4.25;3.03;;;9.90;99.90;;;;;;5040999;28;20120;-72
2024/03/02 09:46:49;;;;;;;3.03;2.70;;;10.00;99.90;;;;;;5035542;28;20032;-71
2024/03/02 09:49:14;;;;;;;3.33;3.03;;;10.10;99.90;;;;;;5041164;28;20060;-71
2024/03/02 09:51:41;;;;;;;4.40;2.88;;;10.10;99.90;;;;;;5042807;28;20402;-73
2024/03/02 09:54:07;;;;;;;3.30;2.70;;;10.20;99.90;;;;;;5044625;28;20486;-72
2024/03/02 09:56:36;;;;;;;2.97;2.65;;;10.30;99.90;;;;;;5040647;28;20033;-71
2024/03/02 09:59:01;;;;;;;3.55;3.22;;;10.40;99.90;;;;;;5042831;28;20033;-70
2024/03/02 10:01:27;;;;;;;4.82;3.17;;;10.40;99.90;;;;;;5040888;28;20098;-72
2024/03/02 10:03:53;;;;;;;3.20;2.90;;;10.50;99.90;;;;;;5043223;28;20426;-71
2024/03/02 10:06:23;;;;;;;4.25;3.25;;;10.30;99.90;;;;;;5044539;28;20517;-70
2024/03/02 10:08:49;;;;;;;3.42;2.90;;;10.10;99.90;;;;;;5044610;28;20036;-70
2024/03/02 10:11:29;;;;;;;3.42;2.80;;;10.10;99.90;;;;;;5037974;28;20071;-71
2024/03/02 10:14:12;;;;;;;2.70;2.47;;;10.10;99.90;;;;;;5043506;28;20065;-71
2024/03/02 10:16:42;;;;;;;3.20;2.58;;;10.20;99.90;;;;;;5037731;28;20035;-71
2024/03/02 10:19:21;;;;;;;3.78;3.10;;;10.50;99.90;;;;;;5041081;28;20024;-71
2024/03/02 10:21:49;;;;;;;5.85;3.55;;;10.50;99.90;;;;;;5038514;28;20037;-71
2024/03/02 10:24:15;;;;;;;3.42;2.92;;;10.40;99.90;;;;;;5039862;28;20049;-71
2024/03/02 10:26:41;;;;;;;3.47;2.97;;;10.50;99.90;;;;;;5041898;28;20025;-71
2024/03/02 10:29:11;;;;;;;4.43;3.40;;;10.60;99.90;;;;;;5045263;28;20024;-72
2024/03/02 10:31:38;;;;;;;3.03;2.63;;;10.70;99.90;;;;;;5045802;28;20095;-71
2024/03/02 10:34:04;;;;;;;2.60;2.22;;;10.60;99.90;;;;;;5043123;28;20029;-69
2024/03/02 10:36:29;;;;;;;2.20;1.90;;;10.70;99.90;;;;;;5060281;28;20567;-70
2024/03/02 10:38:59;;;;;;;3.10;2.10;;;10.60;99.90;;;;;;5040138;28;20080;-70
2024/03/02 10:41:27;;;;;;;2.30;2.10;;;10.70;99.90;;;;;;5039503;28;20025;-70
2024/03/02 10:43:59;;;;;;;2.42;2.10;;;10.60;99.90;;;;;;5044313;28;20120;-71
2024/03/02 10:46:31;;;;;;;2.50;2.20;;;10.80;99.90;;;;;;5040167;28;20510;-70
2024/03/02 10:49:00;;;;;;;3.25;2.17;;;10.80;99.90;;;;;;5041720;28;20107;-70
2024/03/02 10:51:28;;;;;;;2.63;2.20;;;10.70;99.90;;;;;;5045146;28;20613;-70
2024/03/02 10:53:54;;;;;;;2.75;2.13;;;10.90;99.90;;;;;;5049702;28;20033;-71
2024/03/02 10:56:31;;;;;;;2.50;2.30;;;11.00;99.90;;;;;;5046592;28;20029;-70
2024/03/02 10:59:22;;;;;;;3.13;2.72;;;11.20;99.90;;;;;;5045043;28;20510;-71
2024/03/02 11:01:49;;;;;;;2.88;1.88;;;11.20;99.90;;;;;;5047526;28;20043;-70
2024/03/02 11:04:18;;;;;;;2.25;2.00;;;11.20;99.90;;;;;;5040996;28;20501;-71
2024/03/02 11:06:51;;;;;;;2.35;1.90;;;11.10;99.90;;;;;;5047668;28;20044;-71
2024/03/02 11:09:24;;;;;;;2.45;1.80;;;11.20;99.90;;;;;;5043732;28;20021;-70
2024/03/02 11:12:31;;;;;;;2.85;1.90;;;11.50;99.90;;;;;;5048992;28;20119;-71
2024/03/02 11:14:59;;;;;;;2.05;1.83;;;11.40;99.90;;;;;;5045344;28;20021;-71
2024/03/02 11:17:26;;;;;;;2.83;2.37;;;11.40;99.90;;;;;;5043517;28;20525;-72
2024/03/02 11:19:52;;;;;;;2.70;2.50;;;11.30;99.90;;;;;;5047168;28;20549;-70
2024/03/02 11:22:19;;;;;;;2.95;2.63;;;11.50;99.90;;;;;;5044724;28;20035;-73
2024/03/02 11:24:52;;;;;;;3.58;3.10;;;11.60;99.90;;;;;;5047077;28;20276;-72
2024/03/02 11:27:47;;;;;;;3.03;2.55;;;11.40;99.90;;;;;;5048575;28;20101;-71
2024/03/02 11:30:32;;;;;;;3.13;2.40;;;11.50;99.90;;;;;;5059885;28;20061;-72
2024/03/02 11:33:08;;;;;;;3.40;3.08;;;11.40;99.90;;;;;;5042407;28;20036;-70
2024/03/02 11:35:39;;;;;;;4.45;3.05;;;11.50;99.90;;;;;;5045168;28;20559;-69
2024/03/02 11:38:07;;;;;;;4.15;3.03;;;11.50;99.90;;;;;;5047939;28;20028;-71
2024/03/02 11:40:32;;;;;;;5.10;3.72;;;11.50;99.90;;;;;;5049479;28;20029;-70
2024/03/02 11:43:00;;;;;;;4.30;3.40;;;11.30;99.90;;;;;;5047548;28;20082;-71
2024/03/02 11:45:26;;;;;;;5.20;4.13;;;11.50;99.90;;;;;;5042810;28;20025;-70
2024/03/02 11:47:59;;;;;;;5.20;3.78;;;11.60;99.90;;;;;;5046382;28;20036;-72
2024/03/02 11:50:37;;;;;;;6.75;3.50;;;11.50;99.90;;;;;;5041269;28;20041;-71
2024/03/02 11:53:08;;;;;;;3.30;2.92;;;11.50;99.90;;;;;;5048680;28;20679;-70
2024/03/02 11:55:37;;;;;;;5.97;3.17;;;11.60;99.90;;;;;;5042091;28;20036;-68
2024/03/02 11:58:07;;;;;;;5.28;3.83;;;11.70;99.90;;;;;;5045899;28;20657;-70
2024/03/02 12:00:33;;;;;;;7.97;4.38;;;11.60;99.90;;;;;;5046386;28;20036;-70
2024/03/02 12:03:06;;;;;;;4.93;3.95;;;11.50;99.90;;;;;;5045228;28;20510;-72
2024/03/02 12:05:32;;;;;;;5.30;4.07;;;11.70;99.90;;;;;;5040304;28;20033;-70
2024/03/02 12:08:00;;;;;;;5.30;3.85;;;11.50;99.90;;;;;;5043813;28;20036;-71
2024/03/02 12:10:27;;;;;;;8.87;4.73;;;11.50;99.90;;;;;;5043386;28;20028;-69
2024/03/02 12:12:57;;;;;;;9.05;5.45;;;11.60;99.90;;;;;;5046587;28;20321;-71
2024/03/02 12:15:27;;;;;;;6.60;5.10;;;11.60;99.90;;;;;;5044205;28;20313;-71
2024/03/02 12:17:58;;;;;;;7.30;5.22;;;11.50;99.90;;;;;;5042678;28;20029;-72
2024/03/02 12:20:24;;;;;;;6.18;5.15;;;11.60;99.90;;;;;;5043636;28;20424;-72
2024/03/02 12:22:55;;;;;;;9.50;5.88;;;11.40;99.90;;;;;;5043339;28;20029;-72
2024/03/02 12:25:22;;;;;;;9.18;5.45;;;11.60;99.90;;;;;;5041320;28;20024;-72
2024/03/02 12:27:50;;;;;;;6.82;5.20;;;11.70;99.90;;;;;;5037663;28;20031;-71
2024/03/02 12:30:17;;;;;;;8.43;5.75;;;11.70;99.90;;;;;;5047273;28;20017;-70
2024/03/02 12:32:44;;;;;;;8.50;5.65;;;11.60;99.90;;;;;;5043032;28;20048;-72
2024/03/02 12:35:14;;;;;;;8.20;5.63;;;11.50;99.90;;;;;;5043186;28;20056;-71
2024/03/02 12:37:48;;;;;;;7.95;5.80;;;11.60;99.90;;;;;;5043193;28;20024;-70
2024/03/02 12:40:18;;;;;;;8.23;6.80;;;11.70;99.90;;;;;;5042191;28;20055;-71
2024/03/02 12:42:44;;;;;;;9.43;6.95;;;11.60;99.90;;;;;;5044109;28;20774;-71
2024/03/02 12:45:11;;;;;;;8.75;5.55;;;11.70;99.90;;;;;;5042029;28;20442;-72
2024/03/02 12:47:37;;;;;;;8.98;5.53;;;11.60;99.90;;;;;;5045320;28;20082;-71
2024/03/02 12:50:07;;;;;;;9.13;6.15;;;11.60;99.90;;;;;;5045343;28;20441;-71
2024/03/02 12:52:34;;;;;;;8.15;5.72;;;11.50;99.90;;;;;;5039726;28;20052;-71
2024/03/02 12:55:02;;;;;;;7.07;5.30;;;11.40;99.90;;;;;;5046328;28;20410;-71
2024/03/02 12:57:29;;;;;;;11.57;5.90;;;11.40;99.90;;;;;;5038880;28;20056;-72
2024/03/02 13:00:12;;;;;;;9.00;5.57;;;11.60;99.90;;;;;;5037910;28;20037;-72
2024/03/02 13:02:41;;;;;;;9.60;6.47;;;11.70;99.90;;;;;;5043673;28;20033;-72